Аэропорт: Кадала. Чита

ICAO: UIAA

METAR:
2024-04-22 22:00:00
UIAA 222200Z 26005MPS 9999 FEW050CB 01/M02 Q1000 R29/CLRD70 NOSIG RMK QFE692/0923
TAF:
2024-04-22 20:00:00
TAF UIAA 222000Z 2221/2321 22005G10MPS 9999 BKN030CB 
  TEMPO 2221/2321 28003G08MPS 3100 -SHSNRA